createdAt,value
2019-05-11T00:00:14.200Z,98.83
2019-05-11T00:01:14.383Z,98.62
2019-05-11T00:02:14.597Z,99.04
2019-05-11T00:03:14.760Z,98.72
2019-05-11T00:04:14.927Z,98.93
2019-05-11T00:05:15.104Z,98.21
2019-05-11T00:06:15.271Z,97.90
2019-05-11T00:07:15.447Z,97.80
2019-05-11T00:08:15.663Z,97.60
2019-05-11T00:09:15.806Z,97.49
2019-05-11T00:10:16.499Z,97.90
2019-05-11T00:11:17.009Z,97.69
2019-05-11T00:12:16.391Z,98.83
2019-05-11T00:13:16.608Z,99.55
2019-05-11T00:14:16.774Z,99.55
2019-05-11T00:15:16.931Z,99.55
2019-05-11T00:16:19.134Z,99.04
2019-05-11T00:17:18.272Z,99.04
2019-05-11T00:18:17.459Z,98.93
2019-05-11T00:19:17.645Z,98.72
2019-05-11T00:20:17.902Z,98.42
2019-05-11T00:21:18.007Z,98.93
2019-05-11T00:22:18.163Z,98.93
2019-05-11T00:23:18.346Z,99.04
2019-05-11T00:24:18.516Z,98.62
2019-05-11T00:25:18.686Z,98.46
2019-05-11T00:26:18.882Z,98.36
2019-05-11T00:27:19.055Z,98.67
2019-05-11T00:28:19.220Z,98.36
2019-05-11T00:29:19.371Z,98.57
2019-05-11T00:30:19.540Z,98.62
2019-05-11T00:31:19.702Z,97.60
2019-05-11T00:32:22.716Z,97.80
2019-05-11T00:33:22.009Z,97.90
2019-05-11T00:34:20.249Z,98.11
2019-05-11T00:35:20.435Z,98.42
2019-05-11T00:36:20.610Z,98.42
2019-05-11T00:37:20.801Z,98.72
2019-05-11T00:38:20.983Z,98.42
2019-05-11T00:39:21.122Z,98.72
2019-05-11T00:40:21.269Z,98.72
2019-05-11T00:41:21.432Z,98.32
2019-05-11T00:42:21.645Z,98.62
2019-05-11T00:43:21.812Z,98.32
2019-05-11T00:44:21.962Z,98.62
2019-05-11T00:45:23.007Z,98.42
2019-05-11T00:46:22.288Z,98.58
2019-05-11T00:47:22.474Z,98.52
2019-05-11T00:48:22.650Z,98.58
2019-05-11T00:49:22.823Z,98.58
2019-05-11T00:50:38.204Z,98.47
2019-05-11T00:51:25.154Z,98.27
2019-05-11T00:52:24.013Z,97.39
2019-05-11T00:53:23.525Z,97.90
2019-05-11T00:54:23.707Z,97.60
2019-05-11T00:55:23.907Z,98.06
2019-05-11T00:56:25.002Z,98.00
2019-05-11T00:57:24.257Z,97.86
2019-05-11T00:58:24.427Z,98.47
2019-05-11T00:59:24.608Z,98.16
2019-05-11T01:00:24.772Z,98.06
2019-05-11T01:01:24.899Z,98.47
2019-05-11T01:02:25.072Z,98.27
2019-05-11T01:03:25.526Z,98.58
2019-05-11T01:04:25.455Z,98.21
2019-05-11T01:05:25.609Z,98.00
2019-05-11T01:06:25.802Z,97.86
2019-05-11T01:07:25.953Z,97.75
2019-05-11T01:08:26.523Z,98.00
2019-05-11T01:09:26.287Z,97.86
2019-05-11T01:10:41.115Z,97.96
2019-05-11T01:11:28.616Z,98.37
2019-05-11T01:12:26.750Z,98.83
2019-05-11T01:13:26.992Z,98.62
2019-05-11T01:14:27.178Z,98.11
2019-05-11T01:15:27.356Z,98.52
2019-05-11T01:16:27.551Z,98.58
2019-05-11T01:17:27.774Z,98.79
2019-05-11T01:18:27.963Z,98.37
2019-05-11T01:19:29.058Z,98.58
2019-05-11T01:20:28.361Z,98.37
2019-05-11T01:21:28.562Z,98.79
2019-05-11T01:22:28.780Z,98.68
2019-05-11T01:23:28.956Z,98.37
2019-05-11T01:24:29.144Z,98.79
2019-05-11T01:25:29.391Z,98.58
2019-05-11T01:26:29.582Z,98.79
2019-05-11T01:27:29.792Z,97.86
2019-05-11T01:28:30.033Z,98.37
2019-05-11T01:29:30.234Z,98.27
2019-05-11T01:30:30.471Z,98.16
2019-05-11T01:31:30.577Z,97.86
2019-05-11T01:32:30.780Z,98.47
2019-05-11T01:33:30.970Z,98.58
2019-05-11T01:34:31.185Z,98.68
2019-05-11T01:35:31.401Z,98.16
2019-05-11T01:36:31.614Z,98.47
2019-05-11T01:37:31.816Z,98.27
2019-05-11T01:38:32.048Z,98.27
2019-05-11T01:39:32.266Z,98.16
2019-05-11T01:40:32.444Z,98.42
2019-05-11T01:41:32.621Z,98.00
2019-05-11T01:42:32.785Z,97.86
2019-05-11T01:43:32.944Z,97.96
2019-05-11T01:44:33.124Z,98.06
2019-05-11T01:45:34.016Z,97.75
2019-05-11T01:46:33.521Z,97.34
2019-05-11T01:47:34.513Z,97.90
2019-05-11T01:48:33.890Z,97.75
2019-05-11T01:49:34.087Z,97.65
2019-05-11T01:50:34.249Z,97.44
2019-05-11T01:51:35.018Z,97.65
2019-05-11T01:52:34.669Z,97.69
2019-05-11T01:53:34.808Z,98.47
2019-05-11T01:54:35.025Z,98.37
2019-05-11T01:55:35.166Z,98.32
2019-05-11T01:56:35.309Z,98.58
2019-05-11T01:57:35.475Z,98.58
2019-05-11T01:58:35.651Z,98.68
2019-05-11T01:59:35.833Z,98.88
2019-05-11T02:00:35.987Z,99.30
2019-05-11T02:01:36.159Z,98.99
2019-05-11T02:02:36.305Z,98.99
2019-05-11T02:03:36.469Z,98.79
2019-05-11T02:04:36.656Z,98.88
2019-05-11T02:05:36.848Z,99.30
2019-05-11T02:06:37.052Z,99.40
2019-05-11T02:07:38.013Z,99.09
2019-05-11T02:08:38.010Z,99.81
2019-05-11T02:09:37.559Z,99.19
2019-05-11T02:10:37.744Z,99.40
2019-05-11T02:11:37.908Z,99.15
2019-05-11T02:12:38.065Z,99.40
2019-05-11T02:13:38.219Z,99.51
2019-05-11T02:14:38.396Z,99.87
2019-05-11T02:15:38.596Z,99.99
2019-05-11T02:16:38.751Z,99.91
2019-05-11T02:17:38.909Z,99.71
2019-05-11T02:18:39.093Z,99.40
2019-05-11T02:19:39.230Z,99.30
2019-05-11T02:20:39.414Z,99.51
2019-05-11T02:21:39.551Z,99.40
2019-05-11T02:22:39.702Z,98.94
2019-05-11T02:23:39.848Z,98.99
2019-05-11T02:24:40.004Z,99.19
2019-05-11T02:25:40.196Z,99.56
2019-05-11T02:26:40.323Z,98.79
2019-05-11T02:27:40.498Z,98.74
2019-05-11T02:28:40.666Z,99.09
2019-05-11T02:29:41.683Z,99.30
2019-05-11T02:30:42.053Z,98.88
2019-05-11T02:31:42.220Z,99.51
2019-05-11T02:32:41.355Z,98.84
2019-05-11T02:33:42.511Z,99.46
2019-05-11T02:34:41.777Z,99.09
2019-05-11T02:35:41.911Z,99.30
2019-05-11T02:36:42.035Z,99.09
2019-05-11T02:37:42.183Z,99.60
2019-05-11T02:38:43.020Z,99.71
2019-05-11T02:39:42.528Z,99.19
2019-05-11T02:40:42.665Z,99.51
2019-05-11T02:41:43.055Z,99.40
2019-05-11T02:42:43.062Z,99.81
2019-05-11T02:43:43.207Z,99.09
2019-05-11T02:44:43.353Z,99.60
2019-05-11T02:45:43.513Z,99.56
2019-05-11T02:46:43.684Z,99.15
2019-05-11T02:47:44.524Z,99.71
2019-05-11T02:48:44.064Z,99.71
2019-05-11T02:49:44.233Z,99.30
2019-05-11T02:50:44.400Z,98.99
2019-05-11T02:51:45.575Z,99.19
2019-05-11T02:52:44.717Z,99.09
2019-05-11T02:53:44.875Z,99.09
2019-05-11T02:54:45.021Z,99.09
2019-05-11T02:55:45.183Z,99.09
2019-05-11T02:56:45.530Z,99.30
2019-05-11T02:57:45.561Z,99.09
2019-05-11T02:58:45.707Z,99.09
2019-05-11T02:59:45.848Z,99.09
2019-05-11T03:00:46.007Z,99.19
2019-05-11T03:01:46.162Z,99.40
2019-05-11T03:02:46.355Z,99.99
2019-05-11T03:03:46.526Z,99.99
2019-05-11T03:04:46.667Z,99.99
2019-05-11T03:05:47.533Z,99.99
2019-05-11T03:06:47.049Z,99.99
2019-05-11T03:07:48.264Z,99.99
2019-05-11T03:08:47.425Z,99.51
2019-05-11T03:09:47.608Z,99.51
2019-05-11T03:10:47.790Z,99.81
2019-05-11T03:11:55.383Z,99.71
2019-05-11T03:12:50.113Z,99.99
2019-05-11T03:13:49.265Z,99.51
2019-05-11T03:14:48.399Z,99.91
2019-05-11T03:15:48.577Z,99.99
2019-05-11T03:16:48.750Z,99.99
2019-05-11T03:17:48.916Z,99.99
2019-05-11T03:18:49.103Z,99.99
2019-05-11T03:19:49.250Z,99.99
2019-05-11T03:20:49.423Z,99.99
2019-05-11T03:21:49.607Z,99.99
2019-05-11T03:22:49.770Z,99.99
2019-05-11T03:23:49.994Z,99.99
2019-05-11T03:24:50.149Z,99.99
2019-05-11T03:25:50.302Z,99.99
2019-05-11T03:26:50.468Z,99.99
2019-05-11T03:27:50.630Z,99.87
2019-05-11T03:28:50.850Z,99.77
2019-05-11T03:29:51.078Z,99.87
2019-05-11T03:30:51.295Z,99.25
2019-05-11T03:31:51.493Z,99.46
2019-05-11T03:32:52.685Z,99.51
2019-05-11T03:33:51.840Z,99.15
2019-05-11T03:34:52.045Z,99.15
2019-05-11T03:35:52.234Z,99.56
2019-05-11T03:36:53.026Z,99.46
2019-05-11T03:37:52.583Z,99.46
2019-05-11T03:38:52.749Z,99.81
2019-05-11T03:39:52.906Z,99.60
2019-05-11T03:40:53.130Z,99.66
2019-05-11T03:41:53.304Z,99.71
2019-05-11T03:42:53.479Z,99.60
2019-05-11T03:43:53.666Z,99.51
2019-05-11T03:44:54.046Z,99.35
2019-05-11T03:45:53.968Z,99.71
2019-05-11T03:46:54.162Z,99.99
2019-05-11T03:47:55.041Z,99.99
2019-05-11T03:48:54.536Z,99.99
2019-05-11T03:49:54.716Z,99.99
2019-05-11T03:50:55.550Z,99.97
2019-05-11T03:51:55.049Z,99.99
2019-05-11T03:52:55.266Z,99.99
2019-05-11T03:53:55.425Z,99.97
2019-05-11T03:54:55.631Z,99.46
2019-05-11T03:55:55.773Z,99.71
2019-05-11T03:56:55.941Z,99.99
2019-05-11T03:57:56.113Z,99.99
2019-05-11T03:58:56.281Z,99.99
2019-05-11T03:59:56.467Z,99.99
2019-05-11T04:00:56.663Z,99.99
2019-05-11T04:01:56.872Z,99.77
2019-05-11T04:02:57.058Z,99.99
2019-05-11T04:03:57.234Z,99.99
2019-05-11T04:04:57.395Z,99.77
2019-05-11T04:05:58.529Z,99.87
2019-05-11T04:06:57.784Z,99.99
2019-05-11T04:07:57.986Z,99.99
2019-05-11T04:08:58.167Z,99.99
2019-05-11T04:09:58.324Z,99.99
2019-05-11T04:10:59.042Z,99.99
2019-05-11T04:11:58.690Z,99.99
2019-05-11T04:12:58.923Z,99.99
2019-05-11T04:13:59.133Z,99.99
2019-05-11T04:15:00.037Z,99.99
2019-05-11T04:16:00.036Z,99.97
2019-05-11T04:17:00.055Z,99.99
2019-05-11T04:17:59.744Z,99.99
2019-05-11T04:19:00.540Z,99.99
2019-05-11T04:20:01.035Z,99.99
2019-05-11T04:21:00.295Z,99.99
2019-05-11T04:22:00.478Z,99.99
2019-05-11T04:23:01.049Z,99.99
2019-05-11T04:24:00.853Z,99.99
2019-05-11T04:25:01.571Z,99.99
2019-05-11T04:26:01.253Z,99.87
2019-05-11T04:27:01.437Z,99.66
2019-05-11T04:28:01.630Z,99.51
2019-05-11T04:29:02.532Z,99.82
2019-05-11T04:30:02.080Z,99.62
2019-05-11T04:31:03.039Z,99.62
2019-05-11T04:32:02.388Z,99.72
2019-05-11T04:33:02.566Z,99.82
2019-05-11T04:34:02.760Z,99.99
2019-05-11T04:35:02.907Z,99.99
2019-05-11T04:36:03.064Z,99.99
2019-05-11T04:37:03.186Z,99.99
2019-05-11T04:38:03.430Z,99.72
2019-05-11T04:39:04.055Z,99.41
2019-05-11T04:40:03.798Z,99.93
2019-05-11T04:41:03.927Z,99.98
2019-05-11T04:42:04.066Z,99.88
2019-05-11T04:43:04.210Z,99.57
2019-05-11T04:44:04.568Z,99.47
2019-05-11T04:45:04.604Z,99.57
2019-05-11T04:46:04.761Z,99.16
2019-05-11T04:47:04.931Z,98.96
2019-05-11T04:48:05.101Z,98.75
2019-05-11T04:49:05.264Z,98.96
2019-05-11T04:50:05.444Z,99.05
2019-05-11T04:51:06.585Z,98.96
2019-05-11T04:52:05.833Z,99.37
2019-05-11T04:53:05.985Z,99.47
2019-05-11T04:54:07.155Z,99.26
2019-05-11T04:55:06.289Z,99.41
2019-05-11T04:56:06.449Z,98.96
2019-05-11T04:57:07.556Z,99.62
2019-05-11T04:58:06.808Z,99.47
2019-05-11T04:59:06.942Z,99.99
2019-05-11T05:00:07.146Z,99.31
2019-05-11T05:01:07.312Z,99.98
2019-05-11T05:02:07.458Z,99.88
2019-05-11T05:03:07.602Z,99.72
2019-05-11T05:04:13.670Z,99.57
2019-05-11T05:05:10.017Z,99.57
2019-05-11T05:06:22.215Z,99.57
2019-05-11T05:07:10.883Z,99.51
2019-05-11T05:08:10.091Z,99.57
2019-05-11T05:09:09.594Z,99.57
2019-05-11T05:10:08.754Z,99.37
2019-05-11T05:11:08.912Z,99.47
2019-05-11T05:12:14.103Z,99.77
2019-05-11T05:13:11.116Z,99.77
2019-05-11T05:14:10.526Z,99.26
2019-05-11T05:15:09.641Z,99.16
2019-05-11T05:16:09.809Z,99.47
2019-05-11T05:17:09.960Z,98.96
2019-05-11T05:18:10.124Z,99.41
2019-05-11T05:19:10.285Z,98.90
2019-05-11T05:20:10.427Z,99.82
2019-05-11T05:21:10.601Z,99.31
2019-05-11T05:22:10.775Z,99.93
2019-05-11T05:23:10.971Z,99.88
2019-05-11T05:24:11.147Z,99.99
2019-05-11T05:25:11.299Z,99.41
2019-05-11T05:26:11.456Z,99.47
2019-05-11T05:27:12.050Z,99.47
2019-05-11T05:28:11.806Z,98.85
2019-05-11T05:29:11.958Z,99.26
2019-05-11T05:30:12.142Z,99.16
2019-05-11T05:31:12.308Z,98.96
2019-05-11T05:32:12.482Z,99.05
2019-05-11T05:33:12.658Z,99.37
2019-05-11T05:34:12.917Z,98.44
2019-05-11T05:35:13.552Z,98.13
2019-05-11T05:36:13.189Z,98.79
2019-05-11T05:37:13.338Z,98.44
2019-05-11T05:38:13.482Z,98.44
2019-05-11T05:39:13.669Z,98.18
2019-05-11T05:40:13.832Z,98.44
2019-05-11T05:41:14.998Z,98.13
2019-05-11T05:42:14.237Z,98.75
2019-05-11T05:43:25.904Z,98.65
2019-05-11T05:44:16.547Z,99.31
2019-05-11T05:45:14.652Z,99.05
2019-05-11T05:46:14.815Z,99.37
2019-05-11T05:47:14.936Z,98.03
2019-05-11T05:48:16.071Z,98.24
2019-05-11T05:49:15.352Z,98.54
2019-05-11T05:50:15.485Z,98.75
2019-05-11T05:51:16.556Z,99.37
2019-05-11T05:52:15.817Z,98.39
2019-05-11T05:53:16.001Z,98.13
2019-05-11T05:54:16.179Z,97.52
2019-05-11T05:55:16.380Z,98.44
2019-05-11T05:56:16.575Z,98.33
2019-05-11T05:57:16.731Z,97.92
2019-05-11T05:58:16.882Z,97.31
2019-05-11T05:59:17.059Z,98.33
2019-05-11T06:00:18.074Z,98.08
2019-05-11T06:01:17.465Z,98.50
2019-05-11T06:02:18.553Z,98.75
2019-05-11T06:03:18.065Z,98.24
2019-05-11T06:04:17.965Z,98.39
2019-05-11T06:05:18.158Z,98.19
2019-05-11T06:06:19.063Z,98.60
2019-05-11T06:07:18.571Z,98.29
2019-05-11T06:08:19.061Z,98.19
2019-05-11T06:09:19.573Z,98.08
2019-05-11T06:10:19.123Z,98.50
2019-05-11T06:11:19.296Z,97.57
2019-05-11T06:12:19.463Z,97.06
2019-05-11T06:13:20.563Z,97.67
2019-05-11T06:14:20.563Z,98.25
2019-05-11T06:15:19.992Z,98.35
2019-05-11T06:16:20.190Z,97.63
2019-05-11T06:17:21.086Z,98.25
2019-05-11T06:18:20.478Z,98.35
2019-05-11T06:19:20.628Z,96.70
2019-05-11T06:20:20.815Z,97.32
2019-05-11T06:21:20.975Z,98.14
2019-05-11T06:22:21.167Z,98.10
2019-05-11T06:23:22.069Z,97.48
2019-05-11T06:24:21.474Z,97.38
2019-05-11T06:25:22.667Z,97.89
2019-05-11T06:26:21.831Z,97.69
2019-05-11T06:27:22.564Z,97.79
2019-05-11T06:28:22.220Z,97.07
2019-05-11T06:29:22.380Z,96.97
2019-05-11T06:30:22.612Z,97.58
2019-05-11T06:31:22.852Z,97.07
2019-05-11T06:32:23.553Z,96.25
2019-05-11T06:33:23.216Z,96.77
2019-05-11T06:34:23.387Z,96.50
2019-05-11T06:35:23.581Z,97.02
2019-05-11T06:36:23.751Z,97.58
2019-05-11T06:37:24.063Z,96.87
2019-05-11T06:38:25.058Z,97.28
2019-05-11T06:39:24.350Z,97.58
2019-05-11T06:40:28.204Z,97.07
2019-05-11T06:41:24.698Z,97.22
2019-05-11T06:42:24.875Z,98.35
2019-05-11T06:43:25.556Z,97.42
2019-05-11T06:44:25.236Z,97.42
2019-05-11T06:45:25.406Z,97.73
2019-05-11T06:46:25.622Z,98.45
2019-05-11T06:47:25.818Z,98.35
2019-05-11T06:48:26.049Z,98.76
2019-05-11T06:49:27.061Z,98.14
2019-05-11T06:50:26.358Z,98.04
2019-05-11T06:51:26.613Z,98.35
2019-05-11T06:52:26.711Z,98.39
2019-05-11T06:53:26.916Z,97.67
2019-05-11T06:54:27.107Z,97.47
2019-05-11T06:55:27.280Z,98.29
2019-05-11T06:56:28.076Z,99.01
2019-05-11T06:57:28.073Z,98.86
2019-05-11T06:58:27.728Z,97.88
2019-05-11T06:59:28.552Z,98.19
2019-05-11T07:00:28.189Z,98.35
2019-05-11T07:01:29.071Z,98.29
2019-05-11T07:02:28.427Z,98.39
2019-05-11T07:03:28.606Z,98.39
2019-05-11T07:04:28.787Z,98.50
2019-05-11T07:05:28.984Z,98.08
2019-05-11T07:06:30.667Z,98.35
2019-05-11T07:07:46.085Z,98.86
2019-05-11T07:08:30.605Z,99.07
2019-05-11T07:09:29.737Z,99.02
2019-05-11T07:10:29.943Z,99.02
2019-05-11T07:11:30.103Z,98.30
2019-05-11T07:12:30.343Z,98.20
2019-05-11T07:13:30.420Z,97.32
2019-05-11T07:14:30.642Z,97.42
2019-05-11T07:15:31.633Z,98.14
2019-05-11T07:16:31.057Z,97.99
2019-05-11T07:17:32.059Z,97.17
2019-05-11T07:18:32.054Z,97.28
2019-05-11T07:19:31.611Z,97.12
2019-05-11T07:20:31.818Z,97.48
2019-05-11T07:21:33.006Z,97.07
2019-05-11T07:22:32.160Z,96.77
2019-05-11T07:23:33.081Z,97.07
2019-05-11T07:24:32.460Z,97.64
2019-05-11T07:25:33.080Z,97.23
2019-05-11T07:26:32.857Z,96.92
2019-05-11T07:27:33.581Z,96.15
2019-05-11T07:28:33.271Z,97.13
2019-05-11T07:29:33.507Z,97.19
2019-05-11T07:30:34.077Z,96.32
2019-05-11T07:31:33.887Z,95.50
2019-05-11T07:32:34.569Z,95.40
2019-05-11T07:33:34.233Z,95.34
2019-05-11T07:34:34.425Z,95.61
2019-05-11T07:35:34.625Z,95.61
2019-05-11T07:36:34.800Z,95.24
2019-05-11T07:37:34.960Z,94.99
2019-05-11T07:38:35.127Z,94.93
2019-05-11T07:39:35.335Z,95.03
2019-05-11T07:40:35.510Z,95.65
2019-05-11T07:41:35.691Z,96.37
2019-05-11T07:42:37.985Z,96.12
2019-05-11T07:43:38.004Z,95.81
2019-05-11T07:44:41.028Z,95.03
2019-05-11T07:45:38.810Z,94.11
2019-05-11T07:46:38.067Z,94.83
2019-05-11T07:47:37.956Z,95.40
2019-05-11T07:48:38.771Z,95.54
2019-05-11T07:49:39.069Z,96.12
2019-05-11T07:50:38.735Z,94.73
2019-05-11T07:51:39.050Z,95.86
2019-05-11T07:52:38.744Z,96.22
2019-05-11T07:53:38.206Z,96.01
2019-05-11T07:54:39.594Z,95.81
2019-05-11T07:55:38.651Z,95.20
2019-05-11T07:56:39.369Z,95.70
2019-05-11T07:57:39.264Z,95.66
2019-05-11T07:58:40.563Z,95.56
2019-05-11T07:59:38.811Z,94.27
2019-05-11T08:00:39.974Z,94.27
2019-05-11T08:01:40.196Z,94.68
2019-05-11T08:02:39.319Z,94.78
2019-05-11T08:03:40.081Z,95.09
2019-05-11T08:04:39.730Z,95.50
2019-05-11T08:05:39.914Z,95.66
2019-05-11T08:06:40.053Z,94.99
2019-05-11T08:07:40.259Z,94.17
2019-05-11T08:08:41.080Z,93.76
2019-05-11T08:09:40.621Z,93.96
2019-05-11T08:10:41.566Z,95.09
2019-05-11T08:11:40.969Z,94.68
2019-05-11T08:12:41.600Z,95.70
2019-05-11T08:13:41.373Z,94.11
2019-05-11T08:14:56.733Z,95.44
2019-05-11T08:15:43.694Z,95.29
2019-05-11T08:16:41.871Z,95.34
2019-05-11T08:17:42.597Z,94.93
2019-05-11T08:19:14.671Z,94.99
2019-05-11T08:19:42.423Z,95.70
2019-05-11T08:20:42.585Z,95.40
2019-05-11T08:21:43.137Z,95.61
2019-05-11T08:22:42.950Z,95.91
2019-05-11T08:23:43.139Z,95.87
2019-05-11T08:24:43.374Z,94.95
2019-05-11T08:25:43.591Z,94.89
2019-05-11T08:26:44.607Z,94.43
2019-05-11T08:27:44.016Z,95.66
2019-05-11T08:28:44.206Z,94.99
2019-05-11T08:29:44.389Z,95.29
2019-05-11T08:30:44.553Z,96.17
2019-05-11T08:31:45.625Z,95.05
2019-05-11T08:32:44.913Z,95.70
2019-05-11T08:33:45.125Z,95.15
2019-05-11T08:34:46.117Z,95.20
2019-05-11T08:35:47.908Z,95.76
2019-05-11T08:36:47.838Z,96.73
2019-05-11T08:37:47.916Z,95.70
2019-05-11T08:38:48.232Z,95.97
2019-05-11T08:39:48.206Z,96.07
2019-05-11T08:40:48.495Z,95.61
2019-05-11T08:41:48.840Z,95.56
2019-05-11T08:42:48.352Z,94.84
2019-05-11T08:43:48.228Z,95.36
2019-05-11T08:44:48.333Z,95.87
2019-05-11T08:45:48.664Z,95.72
2019-05-11T08:46:48.668Z,95.51
2019-05-11T08:47:48.508Z,94.84
2019-05-11T08:48:49.011Z,95.51
2019-05-11T08:49:48.554Z,94.96
2019-05-11T08:50:50.137Z,94.49
2019-05-11T08:51:48.536Z,93.47
2019-05-11T08:52:48.736Z,94.64
2019-05-11T08:53:49.134Z,94.49
2019-05-11T08:54:49.087Z,95.31
2019-05-11T08:55:49.263Z,95.57
2019-05-11T08:56:49.435Z,93.88
2019-05-11T08:57:49.628Z,94.55
2019-05-11T08:58:49.810Z,93.26
2019-05-11T08:59:50.129Z,94.59
2019-05-11T09:00:50.198Z,94.49
2019-05-11T09:01:50.386Z,94.24
2019-05-11T09:02:51.141Z,93.32
2019-05-11T09:03:50.806Z,92.91
2019-05-11T09:04:50.985Z,93.79
2019-05-11T09:05:51.150Z,92.71
2019-05-11T09:06:52.113Z,93.12
2019-05-11T09:07:52.120Z,93.59
2019-05-11T09:08:52.618Z,93.99
2019-05-11T09:09:51.796Z,93.89
2019-05-11T09:10:52.005Z,92.93
2019-05-11T09:11:52.145Z,91.29
2019-05-11T09:12:52.299Z,89.70
2019-05-11T09:13:53.122Z,91.44
2019-05-11T09:14:52.613Z,91.33
2019-05-11T09:15:53.139Z,92.40
2019-05-11T09:16:52.930Z,91.48
2019-05-11T09:17:53.136Z,90.92
2019-05-11T09:18:53.269Z,90.56
2019-05-11T09:19:53.412Z,91.99
2019-05-11T09:20:53.606Z,93.52
2019-05-11T09:21:53.798Z,92.60
2019-05-11T09:22:53.969Z,92.87
2019-05-11T09:23:54.623Z,93.18
2019-05-11T09:24:55.124Z,91.13
2019-05-11T09:25:54.386Z,92.46
2019-05-11T09:27:28.644Z,92.32
2019-05-11T09:27:55.669Z,90.99
2019-05-11T09:28:54.937Z,89.31
2019-05-11T09:29:55.134Z,90.53
2019-05-11T09:30:57.760Z,91.50
2019-05-11T09:31:57.618Z,89.56
2019-05-11T09:32:57.518Z,90.68
2019-05-11T09:33:58.223Z,92.11
2019-05-11T09:34:57.998Z,89.86
2019-05-11T09:35:58.415Z,89.35
2019-05-11T09:36:58.608Z,89.15
2019-05-11T09:37:58.801Z,90.47
2019-05-11T09:38:58.243Z,90.47
2019-05-11T09:39:58.473Z,90.72
2019-05-11T09:40:58.657Z,91.19
2019-05-11T09:41:58.644Z,90.62
2019-05-11T09:42:58.683Z,92.36
2019-05-11T09:43:58.836Z,92.56
2019-05-11T09:44:59.664Z,91.13
2019-05-11T09:45:58.341Z,91.95
2019-05-11T09:47:02.362Z,90.72
2019-05-11T09:47:59.230Z,92.46
2019-05-11T09:48:59.101Z,92.56
2019-05-11T09:49:59.523Z,92.83
2019-05-11T09:50:58.895Z,91.76
2019-05-11T09:51:59.872Z,90.84
2019-05-11T09:52:59.012Z,90.64
2019-05-11T09:53:59.189Z,91.56
2019-05-11T09:54:59.365Z,91.46
2019-05-11T09:55:59.544Z,90.23
2019-05-11T09:56:59.757Z,89.51
2019-05-11T09:58:00.954Z,91.15
2019-05-11T09:59:00.116Z,88.74
2019-05-11T10:00:00.287Z,90.82
2019-05-11T10:01:00.527Z,90.68
2019-05-11T10:02:01.185Z,90.11
2019-05-11T10:03:00.910Z,89.65
2019-05-11T10:04:01.126Z,88.84
2019-05-11T10:05:01.356Z,89.39
2019-05-11T10:06:01.555Z,90.27
2019-05-11T10:07:02.670Z,90.58
2019-05-11T10:08:02.011Z,91.70
2019-05-11T10:09:02.185Z,92.32
2019-05-11T10:10:03.187Z,91.09
2019-05-11T10:11:02.493Z,92.52
2019-05-11T10:12:03.172Z,90.82
2019-05-11T10:13:02.838Z,92.50
2019-05-11T10:14:03.194Z,94.45
2019-05-11T10:15:03.225Z,92.97
2019-05-11T10:16:07.381Z,93.52
2019-05-11T10:17:07.604Z,91.27
2019-05-11T10:18:03.664Z,91.31
2019-05-11T10:19:03.842Z,93.00
2019-05-11T10:20:04.679Z,93.30
2019-05-11T10:21:04.212Z,93.77
2019-05-11T10:22:04.412Z,93.43
2019-05-11T10:23:04.575Z,92.56
2019-05-11T10:24:05.188Z,91.29
2019-05-11T10:25:05.002Z,89.72
2019-05-11T10:26:05.191Z,88.85
2019-05-11T10:27:08.289Z,89.49
2019-05-11T10:28:08.503Z,88.26
2019-05-11T10:29:07.853Z,86.47
2019-05-11T10:30:08.125Z,86.57
2019-05-11T10:31:08.576Z,86.47
2019-05-11T10:32:07.959Z,86.30
2019-05-11T10:33:08.280Z,87.49
2019-05-11T10:34:08.625Z,88.35
2019-05-11T10:35:08.128Z,89.82
2019-05-11T10:36:08.345Z,89.58
2019-05-11T10:37:08.641Z,89.00
2019-05-11T10:38:08.993Z,87.73
2019-05-11T10:39:08.318Z,89.61
2019-05-11T10:40:09.542Z,87.57
2019-05-11T10:41:08.784Z,89.31
2019-05-11T10:42:08.764Z,86.71
2019-05-11T10:43:29.019Z,86.77
2019-05-11T10:44:08.676Z,85.69
2019-05-11T10:45:09.101Z,86.71
2019-05-11T10:46:19.578Z,87.43
2019-05-11T10:47:10.688Z,86.51
2019-05-11T10:48:08.984Z,86.35
2019-05-11T10:49:10.686Z,87.57
2019-05-11T10:50:09.063Z,88.53
2019-05-11T10:51:09.217Z,88.59
2019-05-11T10:52:09.873Z,89.61
2019-05-11T10:53:10.582Z,87.88
2019-05-11T10:54:09.700Z,87.77
2019-05-11T10:55:09.872Z,87.10
2019-05-11T10:56:10.061Z,87.00
2019-05-11T10:57:10.226Z,88.12
2019-05-11T10:58:10.385Z,87.98
2019-05-11T10:59:11.198Z,87.98
2019-05-11T11:00:10.734Z,87.20
2019-05-11T11:01:11.964Z,88.79
2019-05-11T11:02:11.122Z,88.49
2019-05-11T11:03:11.279Z,89.04
2019-05-11T11:04:11.470Z,88.43
2019-05-11T11:05:11.633Z,90.80
2019-05-11T11:06:11.852Z,88.08
2019-05-11T11:07:12.021Z,88.76
2019-05-11T11:08:12.216Z,86.61
2019-05-11T11:09:12.425Z,86.30
2019-05-11T11:10:12.624Z,86.47
2019-05-11T11:11:12.861Z,84.57
2019-05-11T11:12:13.061Z,87.84
2019-05-11T11:13:14.191Z,85.69
2019-05-11T11:14:14.199Z,86.98
2019-05-11T11:15:13.608Z,87.29
2019-05-11T11:16:13.812Z,87.14
2019-05-11T11:17:14.686Z,88.98
2019-05-11T11:18:14.230Z,85.06
2019-05-11T11:19:15.184Z,84.25
2019-05-11T11:20:14.613Z,84.75
2019-05-11T11:21:14.810Z,83.63
2019-05-11T11:22:33.268Z,85.02
2019-05-11T11:23:17.715Z,82.57
2019-05-11T11:24:17.922Z,84.58
2019-05-11T11:25:17.751Z,84.58
2019-05-11T11:26:15.666Z,83.45
2019-05-11T11:27:15.859Z,81.62
2019-05-11T11:28:17.557Z,80.60
2019-05-11T11:29:17.965Z,81.39
2019-05-11T11:30:18.125Z,83.63
2019-05-11T11:31:18.675Z,82.86
2019-05-11T11:32:18.418Z,83.57
2019-05-11T11:33:18.478Z,82.04
2019-05-11T11:34:18.816Z,82.89
2019-05-11T11:35:18.852Z,84.42
2019-05-11T11:36:18.730Z,86.10
2019-05-11T11:37:17.724Z,85.14
2019-05-11T11:38:18.262Z,84.28
2019-05-11T11:39:19.100Z,84.39
2019-05-11T11:40:18.705Z,82.65
2019-05-11T11:41:19.197Z,83.37
2019-05-11T11:42:18.603Z,82.24
2019-05-11T11:43:19.706Z,83.47
2019-05-11T11:44:18.993Z,84.01
2019-05-11T11:45:19.171Z,82.75
2019-05-11T11:46:20.191Z,82.86
2019-05-11T11:47:21.740Z,83.57
2019-05-11T11:48:20.615Z,85.30
2019-05-11T11:49:19.746Z,82.04
2019-05-11T11:50:19.911Z,82.75
2019-05-11T11:51:20.090Z,83.16
2019-05-11T11:52:20.702Z,83.20
2019-05-11T11:53:20.479Z,83.51
2019-05-11T11:54:20.624Z,82.32
2019-05-11T11:55:20.806Z,82.77
2019-05-11T11:56:20.959Z,83.59
2019-05-11T11:57:21.130Z,86.20
2019-05-11T11:58:23.919Z,84.57
2019-05-11T11:59:22.412Z,84.77
2019-05-11T12:00:21.556Z,85.86
2019-05-11T12:01:22.198Z,82.18
2019-05-11T12:02:21.808Z,81.32
2019-05-11T12:03:21.948Z,81.98
2019-05-11T12:04:22.209Z,83.14
2019-05-11T12:05:23.228Z,82.32
2019-05-11T12:06:23.199Z,84.24
2019-05-11T12:07:22.696Z,84.79
2019-05-11T12:08:22.868Z,85.71
2019-05-11T12:09:23.213Z,84.89
2019-05-11T12:10:23.242Z,85.57
2019-05-11T12:11:23.391Z,83.32
2019-05-11T12:12:23.588Z,86.02
2019-05-11T12:13:26.421Z,85.57
2019-05-11T12:14:24.204Z,86.24
2019-05-11T12:15:24.710Z,84.95
2019-05-11T12:16:24.357Z,83.89
2019-05-11T12:17:24.528Z,83.59
2019-05-11T12:18:24.697Z,84.00
2019-05-11T12:19:24.905Z,83.18
2019-05-11T12:20:25.058Z,85.47
2019-05-11T12:21:27.753Z,86.44
2019-05-11T12:22:25.423Z,84.00
2019-05-11T12:23:25.712Z,82.26
2019-05-11T12:24:28.612Z,82.91
2019-05-11T12:25:27.818Z,83.83
2019-05-11T12:26:28.034Z,83.07
2019-05-11T12:27:28.537Z,85.83
2019-05-11T12:28:27.654Z,83.01
2019-05-11T12:29:28.177Z,84.07
2019-05-11T12:30:28.729Z,84.65
2019-05-11T12:31:30.665Z,86.14
2019-05-11T12:32:28.688Z,82.93
2019-05-11T12:33:28.325Z,84.06
2019-05-11T12:34:28.275Z,81.10
2019-05-11T12:35:28.659Z,83.79
2019-05-11T12:36:28.177Z,82.93
2019-05-11T12:37:29.006Z,82.42
2019-05-11T12:38:28.168Z,83.24
2019-05-11T12:39:29.197Z,84.00
2019-05-11T12:40:28.511Z,82.77
2019-05-11T12:41:28.720Z,82.67
2019-05-11T12:42:28.873Z,83.44
2019-05-11T12:43:29.048Z,82.93
2019-05-11T12:44:29.230Z,84.12
2019-05-11T12:45:29.704Z,81.16
2019-05-11T12:46:30.543Z,82.83
2019-05-11T12:47:30.226Z,82.83
2019-05-11T12:48:29.889Z,83.79
2019-05-11T12:49:30.060Z,85.53
2019-05-11T12:50:30.233Z,84.50
2019-05-11T12:51:30.439Z,82.87
2019-05-11T12:52:30.532Z,83.24
2019-05-11T12:53:30.746Z,83.04
2019-05-11T12:54:33.929Z,82.39